ADDS METAR Data INFO
IDs: Format: Raw Decoded Include TAF

Data at: 0512 UTC 22 Jul 2017

KLAR 220453Z AUTO 18009KT 10SM CLR 13/10 A3030 RMK AO2 SLP150 T01280100
KLAR 220353Z AUTO 19012KT 10SM CLR 13/11 A3031 RMK AO2 SLP159 T01330111
KLAR 220253Z AUTO 10014KT 10SM SCT075 OVC100 14/11 A3029 RMK AO2 RAE36 PRESFR SLP156 P0001 60006 T01390106 50008
KLAR 220153Z AUTO 33012KT 9SM -RA OVC080 13/12 A3037 RMK AO2 PK WND 31036/0102 WSHFT 0047 RAB03 SLP190 P0005 T01330117
KLAR 220129Z AUTO 32017KT 9SM -RA FEW070 OVC080 13/11 A3037 RMK AO2 PK WND 31036/0102 WSHFT 0047 LTG DSNT NE RAB03 P0003 T01330106
KLAR 220114Z AUTO 31020G33KT 4SM VCTS -RA SCT070 OVC085 13/10 A3036 RMK AO2 PK WND 31036/0102 WSHFT 0047 LTG DSNT N AND NE RAB03 P0002 T01330100
KLAR 220107Z AUTO 31026G36KT 4SM +RA BKN070 BKN090 14/11 A3035 RMK AO2 PK WND 31036/0102 WSHFT 0047 LTG DSNT N AND NE RAB03 P0002 T01390106
KLAR 220100Z AUTO 28021G29KT 10SM SCT070 BKN100 17/08 A3034 RMK AO2 PK WND 29029/0100 WSHFT 0040 LTG DSNT NW-NE T01720078
KLAR 220053Z AUTO 29017G24KT 10SM SCT100 BKN110 19/09 A3035 RMK AO2 LTG DSNT NW-NE PRESRR SLP174 T01940089
KLAR 212353Z AUTO 17020KT 10SM CLR 20/09 A3026 RMK AO2 LTG DSNT N AND NW SLP148 60002 T02000094 10289 20194 50006
KLAR 212305Z AUTO 16016G24KT 10SM FEW075 SCT090 21/10 A3029 RMK AO2 LTG DSNT NE AND E T02060100
KLAR 212253Z AUTO 14018KT 10SM VCTS FEW070 BKN090 OVC110 19/10 A3029 RMK AO2 PK WND 15030/2215 LTG DSNT NE AND E SLP159 T01940100
KLAR 212153Z AUTO 34007KT 10SM VCTS SCT100 SCT120 24/09 A3025 RMK AO2 WSHFT 2044 LTG DSNT NE AND E AND SW RAB2058E33 SLP134 P0002 T02390089
KLAR 212104Z AUTO 33017KT 8SM -RA FEW075 SCT090 BKN110 22/13 A3025 RMK AO2 WSHFT 2044 LTG DSNT SE-SW RAB2058 P0001 T02170128
KLAR 212053Z AUTO 32018KT 10SM SCT080 25/09 A3024 RMK AO2 LTG DSNT S-NW SLP127 T02500089 58012
KLAR 211953Z AUTO VRB04KT 10SM CLR 27/06 A3025 RMK AO2 LTG DSNT S-W SLP126 T02670061
KLAR 211853Z AUTO 33008KT 10SM CLR 26/08 A3028 RMK AO2 SLP134 T02610078
KLAR 211753Z AUTO 10SM CLR 26/08 A3029 RMK AO2 SLP133 T02560078 10256 20122 50000
KLAR 211653Z AUTO 02004KT 10SM FEW120 24/09 A3029 RMK AO2 SLP137 T02440089
KLAR 211553Z AUTO 06004KT 10SM FEW120 21/08 A3029 RMK AO2 SLP147 T02110078
KLAR 211453Z AUTO 18004KT 10SM CLR 19/11 A3028 RMK AO2 SLP150 T01890111 53013
KLAR 211353Z AUTO 15003KT 10SM CLR 17/11 A3026 RMK AO2 SLP140 T01720111
KLAR 211253Z AUTO 11006KT 10SM CLR 14/11 A3025 RMK AO2 SLP137 T01390111
KLAR 211153Z AUTO 14007KT 10SM CLR 12/11 A3024 RMK AO2 SLP128 70016 T01220106 10156 20117 55010
KLAR 211053Z AUTO 17004KT 10SM CLR 12/10 A3023 RMK AO2 SLP119 T01220100
KLAR 210953Z AUTO 17007KT 10SM CLR 12/11 A3026 RMK AO2 SLP131 T01170106
KLAR 210853Z AUTO 17003KT 10SM CLR 12/11 A3027 RMK AO2 SLP133 T01220111 58005
KLAR 210753Z AUTO 31005KT 10SM CLR 13/11 A3029 RMK AO2 SLP136 T01330111
KLAR 210653Z AUTO 33014KT 10SM CLR 14/12 A3029 RMK AO2 PK WND 32027/0606 SLP135 T01390117 402940139
KLAR 210553Z AUTO 31018G24KT 10SM BKN085 16/11 A3029 RMK AO2 SLP132 60010 T01610111 10239 20150 53003
KLAR 210453Z AUTO 21013G18KT 10SM FEW070 SCT080 SCT090 17/11 A3025 RMK AO2 WSHFT 0422 RAB27E51 SLP119 P0001 T01670111
KLAR 210442Z AUTO 19007KT 10SM -RA SCT065 BKN090 18/11 A3023 RMK AO2 WSHFT 0422 RAB27 P0001 T01780106
KLAR 210353Z AUTO 19009KT 10SM CLR 16/12 A3027 RMK AO2 LTG DSNT W SLP137 T01560122
KLAR 210253Z AUTO 16014KT 10SM FEW120 16/12 A3028 RMK AO2 PK WND 19031/0218 LTG DSNT E-S RAE35 TSE08 SLP141 P0000 60009 T01560117 53017
KLAR 210244Z AUTO 19014KT 10SM FEW090 SCT120 16/12 A3029 RMK AO2 PK WND 19031/0218 LTG DSNT NE-S RAE35 TSE08 P0000 T01560117
KLAR 210214Z AUTO 21021G30KT 10SM VCTS -RA FEW075 BKN100 OVC120 16/12 A3030 RMK AO2 PK WND 20030/0214 LTG DSNT ALQDS TSE08 P0000 T01610122
KLAR 210153Z AUTO 21010KT 8SM -TSRA FEW070 SCT080 OVC100 18/13 A3027 RMK AO2 LTG DSNT N AND S AND SW RAE07B31 TSB13E37B53 SLP140 P0001 T01830133
KLAR 210143Z AUTO 22010KT 10SM VCTS -RA BKN090 OVC110 19/13 A3026 RMK AO2 LTG DSNT N AND S AND SW RAE07B31 TSB13E37 PRESRR P0000 T01940133
KLAR 210119Z AUTO 17015KT 10SM TS FEW047 FEW060 SCT110 22/13 A3023 RMK AO2 LTG DSNT ALQDS RAE07 TSB13 P0000 T02170133
KLAR 210053Z AUTO 14006KT 5SM VCTS -RA FEW060 SCT070 OVC090 21/12 A3022 RMK AO2 LTG DSNT S-NW RAB06 TSB04E47 SLP124 P0008 T02060122
KLAR 210004Z AUTO 12012KT 10SM TS FEW090 SCT120 23/11 A3021 RMK AO2 LTG DSNT SW AND NW TSB04 T02330111
KLAR 202353Z AUTO 12014KT 10SM FEW120 24/11 A3022 RMK AO2 PK WND 14027/2259 LTG DSNT NW TSE00 SLP117 60006 T02390106 10294 20206 56014
KLAR 202344Z AUTO 13015KT 10SM VCTS CLR 25/11 A3022 RMK AO2 PK WND 14027/2259 LTG DSNT SW AND NW TSE00 T02500106
KLAR 202317Z AUTO 13015G23KT 10SM CLR 27/11 A3023 RMK AO2 PK WND 14027/2259 LTG DSNT ALQDS TSE00 T02670106
KLAR 202306Z AUTO 14012G27KT 10SM VCTS FEW095 27/11 A3023 RMK AO2 PK WND 14027/2259 LTG DSNT E AND SE TSE00 T02670111
KLAR 202253Z AUTO VRB06KT 10SM TS FEW095 27/11 A3023 RMK AO2 PK WND 32033/2214 WSHFT 2206 LTG DSNT NE-SE RAB09E31 TSB03E40B45 SLP117 P0006 T02720111
KLAR 202229Z AUTO 01007G18KT 10SM -TSRA FEW037 SCT080 24/13 A3023 RMK AO2 PK WND 32033/2214 WSHFT 2206 LTG DSNT N AND E RAB09 TSB03 P0006 T02390133
KLAR 202220Z AUTO 01014G33KT 2 1/2SM TSRA FEW037 BKN080 OVC110 21/12 A3024 RMK AO2 PK WND 32033/2214 WSHFT 2206 LTG DSNT N AND E RAB09 TSB03 P0006 T02110122
KLAR 202209Z AUTO 34015G19KT 10SM -TSRA BKN080 OVC110 26/10 A3025 RMK AO2 LTG DSNT N-SE RAB09 TSB03 P0000 T02610100
KLAR 202153Z AUTO 09008KT 10SM VCTS BKN085 27/08 A3024 RMK AO2 LTG DSNT ALQDS SLP118 T02720083
KLAR 202132Z AUTO 08008KT 050V110 10SM VCTS FEW080 29/08 A3025 RMK AO2 LTG DSNT ALQDS T02940083
KLAR 202053Z AUTO VRB04KT 10SM CLR 28/07 A3027 RMK AO2 LTG DSNT ALQDS RAB00E20 SLP124 P0000 60000 T02780072 58015
KLAR 201953Z AUTO 32010KT 10SM FEW080 SCT110 27/08 A3030 RMK AO2 SLP134 T02720078
KLAR 201853Z AUTO 35006KT 10SM CLR 28/08 A3031 RMK AO2 SLP137 T02780078
KLAR 201753Z AUTO 00000KT 10SM CLR 27/08 A3032 RMK AO2 SLP143 T02670078 10272 20139 56008